sensor_id;sensor_type;location;lat;lon;timestamp;pressure;altitude;pressure_sealevel;temperature;humidity
63343;BME280;49465;57.664;39.686;2024-03-25T00:02:16;98332.31;;;9.15;48.98
63343;BME280;49465;57.664;39.686;2024-03-25T00:04:47;98338.22;;;9.07;50.84
63343;BME280;49465;57.664;39.686;2024-03-25T00:07:19;98348.41;;;9.10;50.26
63343;BME280;49465;57.664;39.686;2024-03-25T00:09:45;98358.47;;;9.15;50.46
63343;BME280;49465;57.664;39.686;2024-03-25T00:12:26;98359.28;;;9.15;50.14
63343;BME280;49465;57.664;39.686;2024-03-25T00:14:55;98353.22;;;9.15;50.50
63343;BME280;49465;57.664;39.686;2024-03-25T00:17:32;98345.50;;;9.13;51.34
63343;BME280;49465;57.664;39.686;2024-03-25T00:20:01;98340.97;;;9.15;50.23
63343;BME280;49465;57.664;39.686;2024-03-25T00:22:37;98328.88;;;9.14;49.94
63343;BME280;49465;57.664;39.686;2024-03-25T00:25:08;98323.66;;;9.14;50.12
63343;BME280;49465;57.664;39.686;2024-03-25T00:27:40;98318.13;;;9.07;51.32
63343;BME280;49465;57.664;39.686;2024-03-25T00:30:17;98329.56;;;9.06;49.63
63343;BME280;49465;57.664;39.686;2024-03-25T00:32:49;98319.09;;;9.06;50.31
63343;BME280;49465;57.664;39.686;2024-03-25T00:35:20;98316.91;;;9.12;50.03
63343;BME280;49465;57.664;39.686;2024-03-25T00:37:49;98315.94;;;9.13;53.78
63343;BME280;49465;57.664;39.686;2024-03-25T00:40:22;98323.78;;;9.13;49.50
63343;BME280;49465;57.664;39.686;2024-03-25T00:42:53;98327.50;;;9.10;51.16
63343;BME280;49465;57.664;39.686;2024-03-25T00:45:19;98327.91;;;9.15;49.23
63343;BME280;49465;57.664;39.686;2024-03-25T00:47:51;98312.38;;;9.14;50.73
63343;BME280;49465;57.664;39.686;2024-03-25T00:50:20;98319.09;;;9.16;51.13
63343;BME280;49465;57.664;39.686;2024-03-25T00:52:51;98310.59;;;9.14;51.12
63343;BME280;49465;57.664;39.686;2024-03-25T00:55:21;98302.19;;;9.10;51.02
63343;BME280;49465;57.664;39.686;2024-03-25T00:57:55;98305.34;;;9.04;51.38
63343;BME280;49465;57.664;39.686;2024-03-25T01:00:24;98297.63;;;9.13;49.33
63343;BME280;49465;57.664;39.686;2024-03-25T01:02:58;98309.91;;;9.12;49.59
63343;BME280;49465;57.664;39.686;2024-03-25T01:05:37;98299.44;;;9.12;48.74
63343;BME280;49465;57.664;39.686;2024-03-25T01:08:11;98308.09;;;9.13;48.89
63343;BME280;49465;57.664;39.686;2024-03-25T01:10:43;98301.22;;;9.12;49.69
63343;BME280;49465;57.664;39.686;2024-03-25T01:13:12;98307.28;;;9.12;49.57
63343;BME280;49465;57.664;39.686;2024-03-25T01:15:43;98316.91;;;9.12;49.49
63343;BME280;49465;57.664;39.686;2024-03-25T01:18:12;98321.03;;;9.14;51.18
63343;BME280;49465;57.664;39.686;2024-03-25T01:20:44;98321.84;;;9.15;48.91
63343;BME280;49465;57.664;39.686;2024-03-25T01:23:13;98327.91;;;9.15;49.24
63343;BME280;49465;57.664;39.686;2024-03-25T01:25:51;98336.44;;;9.17;47.56
63343;BME280;49465;57.664;39.686;2024-03-25T01:28:23;98332.44;;;9.23;47.42
63343;BME280;49465;57.664;39.686;2024-03-25T01:30:57;98331.91;;;9.19;47.25
63343;BME280;49465;57.664;39.686;2024-03-25T01:33:26;98323.66;;;9.24;46.96
63343;BME280;49465;57.664;39.686;2024-03-25T01:36:02;98327.22;;;9.23;47.54
63343;BME280;49465;57.664;39.686;2024-03-25T01:38:34;98317.44;;;9.25;47.59
63343;BME280;49465;57.664;39.686;2024-03-25T01:41:09;98315.25;;;9.20;49.06
63343;BME280;49465;57.664;39.686;2024-03-25T01:43:37;98320.34;;;9.22;48.43
63343;BME280;49465;57.664;39.686;2024-03-25T01:46:12;98311.13;;;9.18;47.29
63343;BME280;49465;57.664;39.686;2024-03-25T01:48:47;98308.38;;;9.19;46.64
63343;BME280;49465;57.664;39.686;2024-03-25T01:51:15;98307.28;;;9.22;46.87
63343;BME280;49465;57.664;39.686;2024-03-25T01:53:47;98318.56;;;9.22;49.28
63343;BME280;49465;57.664;39.686;2024-03-25T01:56:25;98318.84;;;9.19;47.98
63343;BME280;49465;57.664;39.686;2024-03-25T01:58:54;98321.16;;;9.22;47.18
63343;BME280;49465;57.664;39.686;2024-03-25T02:01:23;98319.38;;;9.23;49.87
63343;BME280;49465;57.664;39.686;2024-03-25T02:03:58;98321.72;;;9.26;49.32
63343;BME280;49465;57.664;39.686;2024-03-25T02:06:27;98322.97;;;9.22;47.80
63343;BME280;49465;57.664;39.686;2024-03-25T02:08:56;98329.56;;;9.26;48.85
63343;BME280;49465;57.664;39.686;2024-03-25T02:11:30;98340.28;;;9.23;49.61
63343;BME280;49465;57.664;39.686;2024-03-25T02:13:59;98341.53;;;9.19;47.42
63343;BME280;49465;57.664;39.686;2024-03-25T02:16:34;98347.19;;;9.24;47.13
63343;BME280;49465;57.664;39.686;2024-03-25T02:19:07;98335.06;;;9.23;46.82
63343;BME280;49465;57.664;39.686;2024-03-25T02:21:38;98334.38;;;9.21;45.87
63343;BME280;49465;57.664;39.686;2024-03-25T02:24:11;98340.28;;;9.23;46.32
63343;BME280;49465;57.664;39.686;2024-03-25T02:26:43;98340.44;;;9.21;46.45
63343;BME280;49465;57.664;39.686;2024-03-25T02:29:15;98354.34;;;9.22;46.86
63343;BME280;49465;57.664;39.686;2024-03-25T02:31:49;98352.13;;;9.17;46.16
63343;BME280;49465;57.664;39.686;2024-03-25T02:34:24;98352.28;;;9.16;47.93
63343;BME280;49465;57.664;39.686;2024-03-25T02:36:53;98356.13;;;9.12;46.16
63343;BME280;49465;57.664;39.686;2024-03-25T02:39:24;98358.47;;;9.15;46.19
63343;BME280;49465;57.664;39.686;2024-03-25T02:41:55;98361.38;;;9.12;46.45
63343;BME280;49465;57.664;39.686;2024-03-25T02:44:27;98370.56;;;8.96;46.54
63343;BME280;49465;57.664;39.686;2024-03-25T02:46:58;98371.91;;;8.90;46.91
63343;BME280;49465;57.664;39.686;2024-03-25T02:49:31;98375.69;;;8.57;48.37
63343;BME280;49465;57.664;39.686;2024-03-25T02:52:03;98381.56;;;8.49;48.72
63343;BME280;49465;57.664;39.686;2024-03-25T02:54:34;98383.09;;;8.21;50.18
63343;BME280;49465;57.664;39.686;2024-03-25T02:57:07;98398.63;;;8.02;51.27
63343;BME280;49465;57.664;39.686;2024-03-25T02:59:40;98387.75;;;7.97;51.68
63343;BME280;49465;57.664;39.686;2024-03-25T03:02:12;98392.34;;;7.83;52.74
63343;BME280;49465;57.664;39.686;2024-03-25T03:04:43;98386.84;;;7.65;54.02
63343;BME280;49465;57.664;39.686;2024-03-25T03:07:17;98402.06;;;7.28;55.20
63343;BME280;49465;57.664;39.686;2024-03-25T03:09:46;98410.41;;;7.75;53.59
63343;BME280;49465;57.664;39.686;2024-03-25T03:12:18;98406.78;;;7.34;55.17
63343;BME280;49465;57.664;39.686;2024-03-25T03:14:44;98413.44;;;7.59;54.28
63343;BME280;49465;57.664;39.686;2024-03-25T03:17:10;98420.81;;;7.54;54.44
63343;BME280;49465;57.664;39.686;2024-03-25T03:19:40;98428.69;;;7.96;53.33
63343;BME280;49465;57.664;39.686;2024-03-25T03:22:06;98432.94;;;8.18;52.37
63343;BME280;49465;57.664;39.686;2024-03-25T03:24:32;98431.81;;;7.90;53.06
63343;BME280;49465;57.664;39.686;2024-03-25T03:26:58;98428.94;;;8.14;52.01
63343;BME280;49465;57.664;39.686;2024-03-25T03:29:28;98432.69;;;7.79;53.19
63343;BME280;49465;57.664;39.686;2024-03-25T03:31:54;98451.63;;;7.81;53.05
63343;BME280;49465;57.664;39.686;2024-03-25T03:34:20;98448.34;;;7.79;52.98
63343;BME280;49465;57.664;39.686;2024-03-25T03:36:47;98456.13;;;7.58;53.84
63343;BME280;49465;57.664;39.686;2024-03-25T03:39:13;98473.34;;;7.82;53.18
63343;BME280;49465;57.664;39.686;2024-03-25T03:41:39;98483.50;;;7.96;52.51
63343;BME280;49465;57.664;39.686;2024-03-25T03:44:08;98484.34;;;7.85;52.88
63343;BME280;49465;57.664;39.686;2024-03-25T03:46:35;98485.94;;;7.33;54.81
63343;BME280;49465;57.664;39.686;2024-03-25T03:49:01;98507.22;;;7.61;53.74
63343;BME280;49465;57.664;39.686;2024-03-25T03:51:27;98512.50;;;8.03;52.20
63343;BME280;49465;57.664;39.686;2024-03-25T03:53:53;98517.66;;;7.61;53.60
63343;BME280;49465;57.664;39.686;2024-03-25T03:56:20;98534.28;;;7.92;53.15
63343;BME280;49465;57.664;39.686;2024-03-25T03:58:46;98536.38;;;7.66;53.17
63343;BME280;49465;57.664;39.686;2024-03-25T04:01:18;98544.22;;;7.55;53.59
63343;BME280;49465;57.664;39.686;2024-03-25T04:03:44;98538.03;;;7.67;53.18
63343;BME280;49465;57.664;39.686;2024-03-25T04:06:11;98545.97;;;7.65;52.87
63343;BME280;49465;57.664;39.686;2024-03-25T04:08:40;98549.69;;;7.51;53.63
63343;BME280;49465;57.664;39.686;2024-03-25T04:11:09;98552.28;;;7.51;53.38
63343;BME280;49465;57.664;39.686;2024-03-25T04:13:39;98551.31;;;7.52;53.18
63343;BME280;49465;57.664;39.686;2024-03-25T04:16:05;98561.63;;;7.65;52.77
63343;BME280;49465;57.664;39.686;2024-03-25T04:18:32;98565.72;;;7.36;53.66
63343;BME280;49465;57.664;39.686;2024-03-25T04:20:58;98576.75;;;7.39;53.57
63343;BME280;49465;57.664;39.686;2024-03-25T04:23:25;98577.88;;;7.58;52.81
63343;BME280;49465;57.664;39.686;2024-03-25T04:25:51;98591.91;;;7.00;54.55
63343;BME280;49465;57.664;39.686;2024-03-25T04:28:20;98591.78;;;6.90;54.69
63343;BME280;49465;57.664;39.686;2024-03-25T04:30:52;98602.22;;;7.02;54.34
63343;BME280;49465;57.664;39.686;2024-03-25T04:33:30;98612.88;;;7.10;54.12
63343;BME280;49465;57.664;39.686;2024-03-25T04:35:56;98626.97;;;7.30;53.53
63343;BME280;49465;57.664;39.686;2024-03-25T04:38:25;98626.97;;;7.07;54.34
63343;BME280;49465;57.664;39.686;2024-03-25T04:40:51;98633.25;;;7.39;53.20
63343;BME280;49465;57.664;39.686;2024-03-25T04:43:17;98638.81;;;7.23;53.87
63343;BME280;49465;57.664;39.686;2024-03-25T04:45:43;98646.19;;;7.63;52.79
63343;BME280;49465;57.664;39.686;2024-03-25T04:48:12;98649.22;;;7.79;52.21
63343;BME280;49465;57.664;39.686;2024-03-25T04:50:42;98657.78;;;7.70;52.24
63343;BME280;49465;57.664;39.686;2024-03-25T04:53:08;98667.16;;;7.50;52.92
63343;BME280;49465;57.664;39.686;2024-03-25T04:55:34;98668.34;;;7.35;53.31
63343;BME280;49465;57.664;39.686;2024-03-25T04:58:00;98663.72;;;7.38;53.56
63343;BME280;49465;57.664;39.686;2024-03-25T05:00:27;98666.31;;;7.38;53.17
63343;BME280;49465;57.664;39.686;2024-03-25T05:02:53;98680.44;;;7.69;52.62
63343;BME280;49465;57.664;39.686;2024-03-25T05:05:19;98682.66;;;7.74;52.80
63343;BME280;49465;57.664;39.686;2024-03-25T05:07:45;98691.47;;;7.39;53.77
63343;BME280;49465;57.664;39.686;2024-03-25T05:10:11;98699.88;;;7.31;53.82
63343;BME280;49465;57.664;39.686;2024-03-25T05:12:38;98700.47;;;7.58;52.76
63343;BME280;49465;57.664;39.686;2024-03-25T05:15:04;98699.16;;;7.63;52.82
63343;BME280;49465;57.664;39.686;2024-03-25T05:17:31;98705.47;;;7.49;52.98
63343;BME280;49465;57.664;39.686;2024-03-25T05:19:57;98711.59;;;7.26;53.66
63343;BME280;49465;57.664;39.686;2024-03-25T05:22:24;98721.34;;;7.58;52.94
63343;BME280;49465;57.664;39.686;2024-03-25T05:24:50;98724.31;;;7.53;52.78
63343;BME280;49465;57.664;39.686;2024-03-25T05:27:16;98734.13;;;7.49;52.83
63343;BME280;49465;57.664;39.686;2024-03-25T05:29:42;98730.81;;;7.70;52.68
63343;BME280;49465;57.664;39.686;2024-03-25T05:32:08;98739.63;;;7.69;52.62
63343;BME280;49465;57.664;39.686;2024-03-25T05:34:34;98745.53;;;7.82;52.06
63343;BME280;49465;57.664;39.686;2024-03-25T05:37:02;98760.00;;;7.98;51.51
63343;BME280;49465;57.664;39.686;2024-03-25T05:39:28;98757.88;;;7.80;52.00
63343;BME280;49465;57.664;39.686;2024-03-25T05:41:54;98773.50;;;7.58;52.60
63343;BME280;49465;57.664;39.686;2024-03-25T05:44:20;98779.31;;;7.50;53.29
63343;BME280;49465;57.664;39.686;2024-03-25T05:46:49;98790.81;;;7.47;52.65
63343;BME280;49465;57.664;39.686;2024-03-25T05:49:15;98793.16;;;7.39;53.02
63343;BME280;49465;57.664;39.686;2024-03-25T05:51:47;98806.38;;;7.83;51.84
63343;BME280;49465;57.664;39.686;2024-03-25T05:54:13;98818.66;;;7.47;52.76
63343;BME280;49465;57.664;39.686;2024-03-25T05:56:45;98813.59;;;7.68;52.19
63343;BME280;49465;57.664;39.686;2024-03-25T05:59:11;98819.53;;;7.70;52.28
63343;BME280;49465;57.664;39.686;2024-03-25T06:01:37;98828.44;;;7.32;52.75
63343;BME280;49465;57.664;39.686;2024-03-25T06:04:05;98838.16;;;7.30;52.94
63343;BME280;49465;57.664;39.686;2024-03-25T06:06:31;98839.53;;;7.58;52.51
63343;BME280;49465;57.664;39.686;2024-03-25T06:08:59;98842.72;;;7.50;52.62
63343;BME280;49465;57.664;39.686;2024-03-25T06:11:26;98843.19;;;7.44;52.93
63343;BME280;49465;57.664;39.686;2024-03-25T06:13:53;98854.47;;;7.56;52.64
63343;BME280;49465;57.664;39.686;2024-03-25T06:16:19;98855.38;;;8.13;51.16
63343;BME280;49465;57.664;39.686;2024-03-25T06:18:48;98866.03;;;7.87;51.98
63343;BME280;49465;57.664;39.686;2024-03-25T06:21:14;98866.97;;;7.75;52.30
63343;BME280;49465;57.664;39.686;2024-03-25T06:23:40;98863.03;;;7.69;52.47
63343;BME280;49465;57.664;39.686;2024-03-25T06:26:06;98870.97;;;7.57;53.25
63343;BME280;49465;57.664;39.686;2024-03-25T06:28:33;98880.69;;;7.66;53.14
63343;BME280;49465;57.664;39.686;2024-03-25T06:30:59;98892.25;;;7.75;52.50
63343;BME280;49465;57.664;39.686;2024-03-25T06:33:43;98895.63;;;7.64;53.04
63343;BME280;49465;57.664;39.686;2024-03-25T06:36:31;98905.94;;;8.01;52.36
63343;BME280;49465;57.664;39.686;2024-03-25T06:39:01;98906.75;;;7.90;52.76
63343;BME280;49465;57.664;39.686;2024-03-25T06:41:29;98913.88;;;7.99;52.46
63343;BME280;49465;57.664;39.686;2024-03-25T06:44:02;98919.25;;;8.20;51.71
63343;BME280;49465;57.664;39.686;2024-03-25T06:46:28;98926.84;;;8.12;52.20
63343;BME280;49465;57.664;39.686;2024-03-25T06:48:57;98922.69;;;8.21;52.23
63343;BME280;49465;57.664;39.686;2024-03-25T06:51:29;98932.03;;;8.01;52.73
63343;BME280;49465;57.664;39.686;2024-03-25T06:53:57;98946.75;;;8.02;52.52
63343;BME280;49465;57.664;39.686;2024-03-25T06:56:25;98949.22;;;8.50;51.50
63343;BME280;49465;57.664;39.686;2024-03-25T06:58:51;98950.06;;;8.62;51.02
63343;BME280;49465;57.664;39.686;2024-03-25T07:01:17;98955.25;;;8.39;51.51
63343;BME280;49465;57.664;39.686;2024-03-25T07:03:44;98955.25;;;8.50;51.80
63343;BME280;49465;57.664;39.686;2024-03-25T07:06:10;98956.34;;;8.48;52.10
63343;BME280;49465;57.664;39.686;2024-03-25T07:08:40;98967.53;;;8.73;50.93
63343;BME280;49465;57.664;39.686;2024-03-25T07:11:06;98976.44;;;8.59;51.60
63343;BME280;49465;57.664;39.686;2024-03-25T07:13:32;98985.69;;;8.85;50.74
63343;BME280;49465;57.664;39.686;2024-03-25T07:15:59;98982.84;;;8.77;51.44
63343;BME280;49465;57.664;39.686;2024-03-25T07:18:31;98990.78;;;8.98;50.72
63343;BME280;49465;57.664;39.686;2024-03-25T07:21:03;98997.69;;;8.88;51.07
63343;BME280;49465;57.664;39.686;2024-03-25T07:23:29;99004.47;;;8.90;50.95
63343;BME280;49465;57.664;39.686;2024-03-25T07:26:04;99007.91;;;9.02;50.87
63343;BME280;49465;57.664;39.686;2024-03-25T07:28:35;99009.19;;;9.19;50.06
63343;BME280;49465;57.664;39.686;2024-03-25T07:31:07;99017.66;;;9.00;50.75
63343;BME280;49465;57.664;39.686;2024-03-25T07:33:42;99009.91;;;8.99;50.36
63343;BME280;49465;57.664;39.686;2024-03-25T07:36:11;99022.03;;;9.11;50.30
63343;BME280;49465;57.664;39.686;2024-03-25T07:38:41;99026.19;;;9.14;49.77
63343;BME280;49465;57.664;39.686;2024-03-25T07:41:10;99024.53;;;9.24;49.92
63343;BME280;49465;57.664;39.686;2024-03-25T07:43:42;99037.59;;;9.35;50.17
63343;BME280;49465;57.664;39.686;2024-03-25T07:46:11;99037.97;;;9.08;50.51
63343;BME280;49465;57.664;39.686;2024-03-25T07:48:44;99053.94;;;9.48;49.83
63343;BME280;49465;57.664;39.686;2024-03-25T07:51:13;99059.19;;;9.48;50.23
63343;BME280;49465;57.664;39.686;2024-03-25T07:53:44;99054.22;;;9.23;50.26
63343;BME280;49465;57.664;39.686;2024-03-25T07:56:19;99062.31;;;9.20;50.02
63343;BME280;49465;57.664;39.686;2024-03-25T07:58:54;99060.16;;;9.36;49.72
63343;BME280;49465;57.664;39.686;2024-03-25T08:01:30;99073.94;;;9.49;49.25
63343;BME280;49465;57.664;39.686;2024-03-25T08:03:59;99076.66;;;9.59;48.64
63343;BME280;49465;57.664;39.686;2024-03-25T08:06:31;99087.47;;;9.66;49.17
63343;BME280;49465;57.664;39.686;2024-03-25T08:09:00;99084.03;;;9.54;49.36
63343;BME280;49465;57.664;39.686;2024-03-25T08:11:35;99090.34;;;9.63;49.24
63343;BME280;49465;57.664;39.686;2024-03-25T08:14:06;99097.22;;;9.64;48.42
63343;BME280;49465;57.664;39.686;2024-03-25T08:16:33;99101.41;;;9.55;49.46
63343;BME280;49465;57.664;39.686;2024-03-25T08:19:05;99108.16;;;9.69;48.42
63343;BME280;49465;57.664;39.686;2024-03-25T08:21:34;99111.97;;;9.76;47.88
63343;BME280;49465;57.664;39.686;2024-03-25T08:24:03;99112.81;;;10.09;47.76
63343;BME280;49465;57.664;39.686;2024-03-25T08:26:34;99112.22;;;10.05;47.37
63343;BME280;49465;57.664;39.686;2024-03-25T08:29:01;99120.34;;;10.02;47.28
63343;BME280;49465;57.664;39.686;2024-03-25T08:31:32;99132.03;;;9.87;48.13
63343;BME280;49465;57.664;39.686;2024-03-25T08:34:07;99125.28;;;10.17;47.94
63343;BME280;49465;57.664;39.686;2024-03-25T08:36:33;99137.28;;;9.87;47.40
63343;BME280;49465;57.664;39.686;2024-03-25T08:39:05;99145.13;;;9.98;47.45
63343;BME280;49465;57.664;39.686;2024-03-25T08:41:39;99138.50;;;10.15;47.61
63343;BME280;49465;57.664;39.686;2024-03-25T08:44:08;99140.31;;;10.03;47.33
63343;BME280;49465;57.664;39.686;2024-03-25T08:46:37;99145.88;;;10.33;46.15
63343;BME280;49465;57.664;39.686;2024-03-25T08:49:09;99141.56;;;10.43;46.58
63343;BME280;49465;57.664;39.686;2024-03-25T08:51:38;99137.69;;;10.15;46.96
63343;BME280;49465;57.664;39.686;2024-03-25T08:54:08;99144.53;;;10.38;46.09
63343;BME280;49465;57.664;39.686;2024-03-25T08:56:44;99148.72;;;10.62;46.13
63343;BME280;49465;57.664;39.686;2024-03-25T08:59:18;99143.94;;;10.88;46.58
63343;BME280;49465;57.664;39.686;2024-03-25T09:01:52;99150.00;;;10.88;46.29
63343;BME280;49465;57.664;39.686;2024-03-25T09:04:19;99154.34;;;10.57;46.97
63343;BME280;49465;57.664;39.686;2024-03-25T09:06:57;99154.97;;;10.92;45.96
63343;BME280;49465;57.664;39.686;2024-03-25T09:09:29;99158.56;;;11.12;45.38
63343;BME280;49465;57.664;39.686;2024-03-25T09:12:16;99158.94;;;11.28;45.47
63343;BME280;49465;57.664;39.686;2024-03-25T09:14:48;99160.06;;;11.35;45.50
63343;BME280;49465;57.664;39.686;2024-03-25T09:17:20;99151.13;;;11.17;45.10
63343;BME280;49465;57.664;39.686;2024-03-25T09:19:50;99157.00;;;11.61;44.68
63343;BME280;49465;57.664;39.686;2024-03-25T09:22:19;99167.72;;;11.48;45.02
63343;BME280;49465;57.664;39.686;2024-03-25T09:24:48;99162.28;;;11.40;45.27
63343;BME280;49465;57.664;39.686;2024-03-25T09:27:20;99176.28;;;11.19;45.07
63343;BME280;49465;57.664;39.686;2024-03-25T09:29:46;99172.75;;;11.61;45.00
63343;BME280;49465;57.664;39.686;2024-03-25T09:32:15;99175.97;;;11.74;44.74
63343;BME280;49465;57.664;39.686;2024-03-25T09:34:41;99173.69;;;11.60;44.58
63343;BME280;49465;57.664;39.686;2024-03-25T09:37:07;99179.31;;;11.45;44.90
63343;BME280;49465;57.664;39.686;2024-03-25T09:39:39;99179.00;;;11.70;44.42
63343;BME280;49465;57.664;39.686;2024-03-25T09:42:12;99188.06;;;11.56;44.65
63343;BME280;49465;57.664;39.686;2024-03-25T09:44:42;99191.63;;;11.03;45.25
63343;BME280;49465;57.664;39.686;2024-03-25T09:47:27;99187.63;;;11.20;45.19
63343;BME280;49465;57.664;39.686;2024-03-25T09:50:01;99196.44;;;11.19;44.47
63343;BME280;49465;57.664;39.686;2024-03-25T09:52:33;99201.94;;;11.16;44.63
63343;BME280;49465;57.664;39.686;2024-03-25T09:55:08;99207.16;;;11.37;44.17
63343;BME280;49465;57.664;39.686;2024-03-25T09:57:37;99210.81;;;11.24;44.34
63343;BME280;49465;57.664;39.686;2024-03-25T10:00:09;99219.56;;;11.56;43.93
63343;BME280;49465;57.664;39.686;2024-03-25T10:02:39;99215.09;;;11.46;43.76
63343;BME280;49465;57.664;39.686;2024-03-25T10:05:08;99222.31;;;11.54;44.34
63343;BME280;49465;57.664;39.686;2024-03-25T10:07:37;99222.47;;;11.32;44.11
63343;BME280;49465;57.664;39.686;2024-03-25T10:10:18;99214.97;;;11.27;43.74
63343;BME280;49465;57.664;39.686;2024-03-25T10:12:50;99230.88;;;11.56;43.75
63343;BME280;49465;57.664;39.686;2024-03-25T10:15:19;99224.69;;;11.57;43.98
63343;BME280;49465;57.664;39.686;2024-03-25T10:17:54;99236.13;;;11.56;43.72
63343;BME280;49465;57.664;39.686;2024-03-25T10:20:23;99226.91;;;11.31;44.08
63343;BME280;49465;57.664;39.686;2024-03-25T10:22:52;99232.25;;;11.51;43.74
63343;BME280;49465;57.664;39.686;2024-03-25T10:25:27;99238.72;;;11.77;43.86
63343;BME280;49465;57.664;39.686;2024-03-25T10:27:57;99248.53;;;11.75;43.51
63343;BME280;49465;57.664;39.686;2024-03-25T10:30:27;99240.94;;;11.72;43.72
63343;BME280;49465;57.664;39.686;2024-03-25T10:33:01;99250.19;;;12.07;43.47
63343;BME280;49465;57.664;39.686;2024-03-25T10:35:35;99253.03;;;12.35;43.14
63343;BME280;49465;57.664;39.686;2024-03-25T10:38:06;99259.44;;;12.52;42.88
63343;BME280;49465;57.664;39.686;2024-03-25T10:40:37;99259.69;;;12.29;43.41
63343;BME280;49465;57.664;39.686;2024-03-25T10:43:10;99273.22;;;12.34;43.26
63343;BME280;49465;57.664;39.686;2024-03-25T10:45:37;99274.63;;;12.48;43.21
63343;BME280;49465;57.664;39.686;2024-03-25T10:48:15;99269.91;;;12.32;43.08
63343;BME280;49465;57.664;39.686;2024-03-25T10:50:46;99270.03;;;12.31;43.04
63343;BME280;49465;57.664;39.686;2024-03-25T10:53:17;99276.53;;;12.26;43.11
63343;BME280;49465;57.664;39.686;2024-03-25T10:55:49;99286.13;;;12.47;43.10
63343;BME280;49465;57.664;39.686;2024-03-25T10:58:24;99282.94;;;12.43;42.76
63343;BME280;49465;57.664;39.686;2024-03-25T11:00:51;99287.91;;;12.46;42.91
63343;BME280;49465;57.664;39.686;2024-03-25T11:03:24;99290.47;;;12.97;42.52
63343;BME280;49465;57.664;39.686;2024-03-25T11:06:00;99291.59;;;12.94;42.59
63343;BME280;49465;57.664;39.686;2024-03-25T11:08:32;99288.97;;;13.14;42.13
63343;BME280;49465;57.664;39.686;2024-03-25T11:11:01;99298.25;;;12.98;42.16
63343;BME280;49465;57.664;39.686;2024-03-25T11:13:35;99304.44;;;13.17;41.99
63343;BME280;49465;57.664;39.686;2024-03-25T11:16:08;99303.75;;;13.24;41.89
63343;BME280;49465;57.664;39.686;2024-03-25T11:18:38;99307.06;;;13.26;41.93
63343;BME280;49465;57.664;39.686;2024-03-25T11:21:12;99304.91;;;13.32;42.01
63343;BME280;49465;57.664;39.686;2024-03-25T11:23:41;99311.41;;;13.47;42.04
63343;BME280;49465;57.664;39.686;2024-03-25T11:26:18;99315.16;;;13.15;42.07
63343;BME280;49465;57.664;39.686;2024-03-25T11:28:47;99314.03;;;13.18;42.00
63343;BME280;49465;57.664;39.686;2024-03-25T11:31:16;99322.19;;;13.15;42.12
63343;BME280;49465;57.664;39.686;2024-03-25T11:33:44;99311.50;;;12.87;42.57
63343;BME280;49465;57.664;39.686;2024-03-25T11:36:11;99316.38;;;13.11;42.23
63343;BME280;49465;57.664;39.686;2024-03-25T11:38:56;99321.63;;;13.21;41.76
63343;BME280;49465;57.664;39.686;2024-03-25T11:41:32;99325.25;;;13.00;41.95
63343;BME280;49465;57.664;39.686;2024-03-25T11:44:03;99327.31;;;12.87;42.16
63343;BME280;49465;57.664;39.686;2024-03-25T11:46:32;99332.88;;;13.03;41.76
63343;BME280;49465;57.664;39.686;2024-03-25T11:49:00;99335.91;;;13.09;41.84
63343;BME280;49465;57.664;39.686;2024-03-25T11:51:29;99340.03;;;13.21;41.51
63343;BME280;49465;57.664;39.686;2024-03-25T11:53:56;99342.00;;;13.19;41.61
63343;BME280;49465;57.664;39.686;2024-03-25T11:56:28;99350.44;;;12.93;41.56
63343;BME280;49465;57.664;39.686;2024-03-25T11:58:54;99351.28;;;12.94;41.29
63343;BME280;49465;57.664;39.686;2024-03-25T12:01:29;99354.63;;;13.05;41.69
63343;BME280;49465;57.664;39.686;2024-03-25T12:04:08;99358.03;;;12.86;41.63
63343;BME280;49465;57.664;39.686;2024-03-25T12:06:34;99355.13;;;12.99;41.27
63343;BME280;49465;57.664;39.686;2024-03-25T12:09:03;99358.81;;;12.58;41.74
63343;BME280;49465;57.664;39.686;2024-03-25T12:11:48;99363.31;;;12.86;41.73
63343;BME280;49465;57.664;39.686;2024-03-25T12:14:14;99366.53;;;13.10;41.42
63343;BME280;49465;57.664;39.686;2024-03-25T12:16:42;99369.97;;;13.00;41.59
63343;BME280;49465;57.664;39.686;2024-03-25T12:19:08;99374.09;;;12.93;41.89
63343;BME280;49465;57.664;39.686;2024-03-25T12:21:34;99382.72;;;13.15;41.57
63343;BME280;49465;57.664;39.686;2024-03-25T12:24:00;99379.41;;;13.13;41.14
63343;BME280;49465;57.664;39.686;2024-03-25T12:26:27;99383.28;;;13.09;41.16
63343;BME280;49465;57.664;39.686;2024-03-25T12:29:02;99387.47;;;13.31;40.93
63343;BME280;49465;57.664;39.686;2024-03-25T12:31:30;99386.09;;;13.46;40.64
63343;BME280;49465;57.664;39.686;2024-03-25T12:33:57;99388.59;;;13.38;41.15
63343;BME280;49465;57.664;39.686;2024-03-25T12:36:28;99397.19;;;13.40;40.83
63343;BME280;49465;57.664;39.686;2024-03-25T12:38:59;99398.84;;;13.41;40.77
63343;BME280;49465;57.664;39.686;2024-03-25T12:41:35;99407.56;;;13.51;40.35
63343;BME280;49465;57.664;39.686;2024-03-25T12:44:04;99398.81;;;13.80;40.41
63343;BME280;49465;57.664;39.686;2024-03-25T12:46:34;99421.44;;;13.73;40.84
63343;BME280;49465;57.664;39.686;2024-03-25T12:49:11;99408.75;;;14.15;40.52
63343;BME280;49465;57.664;39.686;2024-03-25T12:51:47;99410.44;;;13.97;40.37
63343;BME280;49465;57.664;39.686;2024-03-25T12:54:13;99409.69;;;14.14;40.13
63343;BME280;49465;57.664;39.686;2024-03-25T12:56:39;99420.06;;;14.26;40.42
63343;BME280;49465;57.664;39.686;2024-03-25T12:59:08;99428.06;;;14.43;40.33
63343;BME280;49465;57.664;39.686;2024-03-25T13:01:37;99421.66;;;14.46;40.47
63343;BME280;49465;57.664;39.686;2024-03-25T13:04:07;99429.19;;;14.41;40.46
63343;BME280;49465;57.664;39.686;2024-03-25T13:06:38;99425.06;;;14.19;40.70
63343;BME280;49465;57.664;39.686;2024-03-25T13:09:04;99425.66;;;14.60;40.17
63343;BME280;49465;57.664;39.686;2024-03-25T13:11:31;99425.53;;;14.61;39.83
63343;BME280;49465;57.664;39.686;2024-03-25T13:13:57;99432.88;;;14.58;39.35